Time;durP1;ratioP1;P1;durP2;ratioP2;P2;SDS_P1;SDS_P2;PMS_P1;PMS_P2;Temp;Humidity;BMP_temperature;BMP_pressure;BME280_temperature;BME280_humidity;BME280_pressure;Samples;Min_cycle;Max_cycle;Signal;HPM_P1;HPM_P2
2022/11/11 00:00:24;;;;;;;31.37;23.62;;;;;;;6.96;74.25;101201.83;1652848;85;21045;-75
2022/11/11 00:03:09;;;;;;;34.13;23.30;;;;;;;6.97;74.29;101203.52;1652350;86;21455;-77
2022/11/11 00:05:54;;;;;;;29.90;23.47;;;;;;;6.99;74.30;101206.06;1662251;84;21907;-74
2022/11/11 00:08:39;;;;;;;29.85;23.15;;;;;;;6.99;74.37;101200.81;1653384;84;21486;-76
2022/11/11 00:11:24;;;;;;;28.92;22.27;;;;;;;7.00;74.38;101202.50;1667278;84;21415;-75
2022/11/11 00:14:09;;;;;;;32.73;23.15;;;;;;;7.00;74.41;101199.41;1637462;84;21109;-74
2022/11/11 00:26:08;;;;;;;27.27;21.35;;;;;;;7.03;74.64;101185.27;1704524;82;21034;-76
2022/11/11 00:28:54;;;;;;;27.27;21.23;;;;;;;7.04;74.72;101189.59;1698346;83;20964;-74
2022/11/11 00:32:21;;;;;;;30.77;22.13;;;;;;;7.06;74.83;101187.29;1706142;82;21037;-73
2022/11/11 00:34:27;;;;;;;28.32;19.87;;;;;;;7.10;74.95;101186.19;1709200;82;22215;-75
2022/11/11 00:37:13;;;;;;;26.50;20.48;;;;;;;7.11;75.07;101184.41;1702417;83;20970;-75
2022/11/11 00:39:58;;;;;;;25.82;20.27;;;;;;;7.12;75.20;101188.73;1704124;82;21028;-75
2022/11/11 00:42:44;;;;;;;26.68;19.77;;;;;;;7.13;75.36;101179.45;1694750;82;20953;-76
2022/11/11 00:45:29;;;;;;;25.00;19.27;;;;;;;7.15;75.47;101176.30;1685773;84;21565;-76
2022/11/11 00:51:18;;;;;;;26.30;19.95;;;;;;;7.20;75.79;101176.52;1698320;82;21492;-75
2022/11/11 00:54:03;;;;;;;24.70;19.10;;;;;;;7.22;75.94;101179.44;1700680;83;21025;-75
2022/11/11 00:56:49;;;;;;;24.85;18.60;;;;;;;7.24;76.04;101176.29;1700707;83;21008;-76
2022/11/11 00:59:35;;;;;;;23.77;19.42;;;;;;;7.27;76.15;101179.21;1720536;82;20949;-75
2022/11/11 01:02:19;;;;;;;26.00;19.35;;;;;;;7.27;76.24;101174.80;1706887;83;22538;-75
2022/11/11 01:05:04;;;;;;;26.93;19.55;;;;;;;7.28;76.35;101176.97;1707644;83;20966;-76
2022/11/11 01:07:49;;;;;;;23.42;19.12;;;;;;;7.29;76.43;101176.88;1708839;82;21052;-75
2022/11/11 01:10:40;;;;;;;26.42;19.30;;;;;;;7.29;76.53;101179.50;1696028;83;20957;-75
2022/11/11 01:13:31;;;;;;;26.00;19.75;;;;;;;7.30;76.61;101181.20;1689581;84;21037;-75
2022/11/11 01:16:22;;;;;;;23.12;18.42;;;;;;;7.30;76.68;101178.58;1713612;82;21761;-73
2022/11/11 01:19:09;;;;;;;24.27;19.05;;;;;;;7.31;76.78;101179.42;1703082;83;21012;-73
2022/11/11 01:21:55;;;;;;;26.55;20.12;;;;;;;7.32;76.87;101178.48;1701015;82;21444;-74
2022/11/11 01:24:41;;;;;;;29.02;19.40;;;;;;;7.32;76.95;101184.59;1705614;82;21110;-74
2022/11/11 01:27:26;;;;;;;25.23;18.60;;;;;;;7.31;77.02;101175.02;1701155;82;21075;-74
2022/11/11 01:30:12;;;;;;;27.25;18.62;;;;;;;7.31;77.11;101176.33;1696494;83;21932;-75
2022/11/11 01:32:58;;;;;;;29.27;20.32;;;;;;;7.31;77.19;101175.48;1692883;82;21048;-74
2022/11/11 01:35:43;;;;;;;23.20;17.87;;;;;;;7.31;77.29;101180.27;1699844;83;22133;-74
2022/11/11 01:38:28;;;;;;;24.90;18.35;;;;;;;7.31;77.40;101177.64;1669878;85;21046;-74
2022/11/11 01:41:34;;;;;;;26.02;18.32;;;;;;;7.33;77.45;101182.81;1643981;86;20968;-74
2022/11/11 01:44:44;;;;;;;25.97;18.60;;;;;;;7.33;77.55;101177.09;1691524;83;21943;-73
2022/11/11 01:49:17;;;;;;;27.27;19.67;;;;;;;7.33;77.65;101174.92;1684960;84;21064;-75
2022/11/11 01:50:18;;;;;;;27.42;19.02;;;;;;;7.32;77.77;101173.23;1698159;82;21530;-74
2022/11/11 01:53:03;;;;;;;25.45;19.20;;;;;;;7.32;77.85;101167.98;1696753;82;21021;-74
2022/11/11 01:55:48;;;;;;;27.35;19.30;;;;;;;7.31;77.94;101173.70;1702981;83;21564;-74
2022/11/11 01:58:35;;;;;;;25.65;20.08;;;;;;;7.31;78.06;101178.95;1692342;83;21956;-74
2022/11/11 02:01:20;;;;;;;25.43;19.87;;;;;;;7.31;78.12;101177.64;1699745;83;21015;-75
2022/11/11 02:07:10;;;;;;;27.42;19.87;;;;;;;7.31;78.27;101172.84;1694319;82;21087;-73
2022/11/11 02:09:55;;;;;;;28.20;19.52;;;;;;;7.30;78.37;101179.04;1704700;82;21080;-74
2022/11/11 02:15:43;;;;;;;30.17;19.63;;;;;;;7.30;78.49;101179.89;1701648;83;21016;-74
2022/11/11 02:18:29;;;;;;;29.75;19.95;;;;;;;7.31;78.59;101183.36;1679533;84;21010;-74
2022/11/11 02:21:32;;;;;;;24.80;19.37;;;;;;;7.29;78.66;101179.97;1707530;83;20993;-73
2022/11/11 02:24:18;;;;;;;27.17;19.32;;;;;;;7.27;78.74;101185.31;1702485;82;21006;-74
2022/11/11 02:27:03;;;;;;;29.42;20.57;;;;;;;7.28;78.81;101178.28;1703416;83;22500;-75
2022/11/11 02:29:49;;;;;;;26.90;20.52;;;;;;;7.28;78.88;101168.62;1662552;85;21574;-75
2022/11/11 02:32:35;;;;;;;32.10;20.10;;;;;;;7.28;78.95;101165.14;1704402;82;20957;-74
2022/11/11 02:35:26;;;;;;;28.57;20.72;;;;;;;7.27;78.98;101159.03;1675532;84;21374;-74
2022/11/11 02:38:11;;;;;;;28.92;21.35;;;;;;;7.28;79.08;101161.20;1620085;87;21052;-74
2022/11/11 02:44:00;;;;;;;27.85;20.90;;;;;;;7.30;79.19;101172.47;1704266;83;21096;-74
2022/11/11 02:46:45;;;;;;;28.23;20.95;;;;;;;7.30;79.22;101175.95;1702156;84;21042;-74
2022/11/11 02:49:31;;;;;;;28.27;20.40;;;;;;;7.30;79.27;101177.26;1706179;84;21002;-74
2022/11/11 02:52:16;;;;;;;25.97;20.20;;;;;;;7.29;79.35;101179.50;1698522;83;21535;-74
2022/11/11 02:55:01;;;;;;;26.10;20.60;;;;;;;7.30;79.40;101186.45;1699768;84;21928;-74
2022/11/11 02:57:46;;;;;;;30.55;20.70;;;;;;;7.31;79.46;101180.27;1714214;82;20994;-74
2022/11/11 03:00:31;;;;;;;31.42;22.45;;;;;;;7.31;79.51;101183.36;1701939;82;20988;-75
2022/11/11 03:03:16;;;;;;;30.17;21.52;;;;;;;7.29;79.54;101187.39;1668506;84;21412;-73
2022/11/11 03:06:00;;;;;;;29.77;21.52;;;;;;;7.29;79.61;101188.70;1642790;85;21061;-73
2022/11/11 03:08:45;;;;;;;28.47;21.10;;;;;;;7.27;79.67;101189.26;1668865;84;21870;-73
2022/11/11 03:11:30;;;;;;;34.13;22.32;;;;;;;7.28;79.76;101186.16;1695108;83;21049;-74
2022/11/11 03:14:16;;;;;;;29.57;21.65;;;;;;;7.28;79.83;101184.38;1706277;82;21089;-73
2022/11/11 03:23:15;;;;;;;31.93;21.55;;;;;;;7.29;80.01;101180.82;1705241;82;22461;-73
2022/11/11 03:26:01;;;;;;;28.47;21.00;;;;;;;7.30;80.06;101185.14;1704971;83;21005;-73
2022/11/11 03:28:45;;;;;;;35.33;21.57;;;;;;;7.30;80.10;101177.73;1696528;83;21083;-73
2022/11/11 03:31:32;;;;;;;34.58;23.20;;;;;;;7.28;80.17;101184.38;1640187;85;20969;-73
2022/11/11 03:34:17;;;;;;;31.60;21.27;;;;;;;7.27;80.22;101182.69;1648142;86;21106;-74
2022/11/11 03:40:12;;;;;;;30.25;21.80;;;;;;;7.30;80.37;101189.08;1702065;83;21090;-74
2022/11/11 03:42:58;;;;;;;29.57;22.10;;;;;;;7.33;80.39;101185.44;1685749;82;21057;-75
2022/11/11 03:45:43;;;;;;;32.13;22.17;;;;;;;7.34;80.41;101190.64;1674249;84;21017;-74
2022/11/11 03:48:32;;;;;;;30.82;20.85;;;;;;;7.36;80.42;101189.23;1707376;82;21535;-74
2022/11/11 03:51:17;;;;;;;32.60;22.13;;;;;;;7.38;80.42;101193.47;1697380;83;21711;-75
2022/11/11 03:54:02;;;;;;;31.42;22.35;;;;;;;7.38;80.42;101196.57;1699575;83;21011;-74
2022/11/11 03:56:48;;;;;;;31.65;21.62;;;;;;;7.38;80.46;101197.88;1704151;84;21519;-74
2022/11/11 03:59:33;;;;;;;36.15;22.20;;;;;;;7.39;80.45;101203.52;1678789;84;20981;-74
2022/11/11 04:11:39;;;;;;;30.97;22.73;;;;;;;7.38;80.54;101200.05;1694579;83;21456;-74
2022/11/11 04:17:18;;;;;;;36.55;22.80;;;;;;;7.38;80.60;101201.36;1645349;86;20229;-75
2022/11/11 04:23:08;;;;;;;;;;;;;;;7.39;80.62;101212.25;1668849;84;22215;-75
2022/11/11 04:25:54;;;;;;;35.55;22.52;;;;;;;7.39;80.65;101216.20;1654251;85;20150;-74
2022/11/11 04:34:49;;;;;;;31.17;22.62;;;;;;;7.40;80.75;101201.27;1641850;86;22349;-75
2022/11/11 04:37:36;;;;;;;34.45;23.70;;;;;;;7.42;80.78;101211.23;1650075;86;20996;-75
2022/11/11 04:43:25;;;;;;;36.55;23.38;;;;;;;7.43;80.82;101212.50;1641393;86;21039;-74
2022/11/11 04:46:10;;;;;;;33.95;23.50;;;;;;;7.46;80.81;101210.16;1653150;86;21035;-74
2022/11/11 04:48:55;;;;;;;31.90;22.67;;;;;;;7.49;80.82;101210.45;1650265;86;21960;-74
2022/11/11 04:57:47;;;;;;;33.23;22.73;;;;;;;7.49;80.79;101223.59;1700071;83;21116;-74
2022/11/11 05:00:33;;;;;;;34.15;23.10;;;;;;;7.48;80.80;101224.53;1699235;82;21271;-74
2022/11/11 05:03:20;;;;;;;36.03;23.30;;;;;;;7.49;80.84;101227.08;1708539;83;21854;-74
2022/11/11 05:09:08;;;;;;;35.50;22.10;;;;;;;7.50;80.87;101230.55;1708866;83;21048;-74
2022/11/11 05:11:54;;;;;;;36.65;23.45;;;;;;;7.49;80.91;101236.27;1707943;83;21493;-74
2022/11/11 05:26:56;;;;;;;38.50;25.25;;;;;;;7.45;81.15;101250.05;1700905;82;20932;-73
2022/11/11 05:29:41;;;;;;;42.03;26.30;;;;;;;7.45;81.24;101254.47;1710945;82;21120;-73
2022/11/11 05:32:26;;;;;;;42.65;26.42;;;;;;;7.44;81.30;101257.56;1704889;82;21962;-74
2022/11/11 05:35:11;;;;;;;40.88;26.17;;;;;;;7.45;81.40;101254.47;1707085;82;21013;-73
2022/11/11 05:38:20;;;;;;;40.60;25.82;;;;;;;7.45;81.46;101262.34;1694668;82;21480;-73
2022/11/11 05:41:06;;;;;;;41.13;25.77;;;;;;;7.46;81.54;101271.92;1708419;83;21569;-74
2022/11/11 05:43:51;;;;;;;40.52;26.42;;;;;;;7.46;81.64;101271.47;1659120;84;21523;-75
2022/11/11 05:46:37;;;;;;;40.10;27.67;;;;;;;7.45;81.72;101271.08;1638690;85;22264;-74
2022/11/11 05:49:23;;;;;;;41.75;26.75;;;;;;;7.45;81.78;101272.86;1638366;85;21087;-74
2022/11/11 05:52:10;;;;;;;46.77;28.42;;;;;;;7.46;81.92;101277.19;1665083;84;21143;-74
2022/11/11 05:54:57;;;;;;;44.90;27.55;;;;;;;7.48;81.99;101277.10;1644658;85;21040;-74
2022/11/11 05:57:42;;;;;;;46.73;27.55;;;;;;;7.46;82.04;101279.34;1696510;83;21123;-76
2022/11/11 06:00:27;;;;;;;47.75;29.77;;;;;;;7.46;82.11;101278.03;1709122;82;21940;-75
2022/11/11 06:03:12;;;;;;;52.45;30.77;;;;;;;7.47;82.17;101281.52;1708082;82;20970;-75
2022/11/11 06:05:57;;;;;;;48.92;30.27;;;;;;;7.49;82.26;101292.79;1703668;82;21025;-72
2022/11/11 06:08:42;;;;;;;47.83;30.60;;;;;;;7.48;82.35;101297.66;1698540;83;21005;-73
2022/11/11 06:11:30;;;;;;;47.60;29.02;;;;;;;7.49;82.44;101297.20;1703770;83;21073;-73
2022/11/11 06:14:22;;;;;;;44.75;29.57;;;;;;;7.50;82.56;101293.64;1692348;83;21847;-75
2022/11/11 06:17:07;;;;;;;48.60;30.27;;;;;;;7.52;82.61;101297.03;1708702;82;21000;-73
2022/11/11 06:19:53;;;;;;;45.67;28.73;;;;;;;7.54;82.66;101301.77;1705046;83;21006;-73
2022/11/11 06:28:58;;;;;;;49.85;31.15;;;;;;;7.58;82.85;101320.38;1669535;85;21068;-74
2022/11/11 06:31:44;;;;;;;48.08;29.70;;;;;;;7.60;82.92;101316.73;1711527;82;20952;-74
2022/11/11 06:34:29;;;;;;;53.60;32.00;;;;;;;7.64;82.96;101322.70;1713087;82;21075;-74
2022/11/11 06:37:14;;;;;;;58.40;34.27;;;;;;;7.65;83.00;101317.83;1703800;82;21041;-74
2022/11/11 06:39:59;;;;;;;52.95;33.65;;;;;;;7.68;83.05;101317.66;1709501;82;20995;-76
2022/11/11 06:42:45;;;;;;;55.33;34.10;;;;;;;7.72;83.10;101325.76;1704889;82;21008;-71
2022/11/11 06:45:32;;;;;;;47.35;31.48;;;;;;;7.73;83.15;101323.08;1714080;82;21473;-70
2022/11/11 06:48:17;;;;;;;49.42;31.27;;;;;;;7.78;83.20;101322.81;1710763;82;21049;-74
2022/11/11 06:51:05;;;;;;;50.58;31.57;;;;;;;7.81;83.27;101317.39;1719186;81;21009;-72
2022/11/11 06:53:50;;;;;;;47.95;31.93;;;;;;;7.87;83.35;101327.59;1715035;82;21021;-76
2022/11/11 06:56:37;;;;;;;48.95;31.62;;;;;;;7.90;83.35;101323.95;1711965;82;21856;-74
2022/11/11 06:59:22;;;;;;;49.20;31.15;;;;;;;7.92;83.33;101326.91;1700177;82;21063;-73
2022/11/11 07:02:14;;;;;;;46.50;31.20;;;;;;;7.93;83.37;101327.28;1707223;82;21091;-73
2022/11/11 07:06:04;;;;;;;52.08;34.20;;;;;;;7.95;83.40;101331.98;1707583;82;21008;-73
2022/11/11 07:08:58;;;;;;;47.85;31.65;;;;;;;7.97;83.42;101334.06;1676362;82;21490;-73
2022/11/11 07:12:06;;;;;;;47.78;31.20;;;;;;;8.01;83.50;101346.61;1704506;82;22009;-74
2022/11/11 07:15:08;;;;;;;50.45;31.57;;;;;;;8.04;83.50;101355.64;1693127;82;21571;-73
2022/11/11 07:17:55;;;;;;;50.70;31.68;;;;;;;8.07;83.52;101358.11;1713014;82;21056;-72
2022/11/11 07:20:42;;;;;;;75.72;45.98;;;;;;;8.07;83.52;101364.69;1696688;82;21063;-72
2022/11/11 07:23:27;;;;;;;53.30;33.10;;;;;;;8.08;83.58;101372.95;1698085;82;21095;-73
2022/11/11 07:26:13;;;;;;;52.35;31.90;;;;;;;8.11;83.63;101370.66;1714347;82;21960;-73
2022/11/11 07:28:58;;;;;;;57.08;36.33;;;;;;;8.13;83.63;101377.99;1708107;82;20867;-76
2022/11/11 07:31:46;;;;;;;71.33;47.17;;;;;;;8.14;83.71;101381.86;1706693;82;21063;-73
2022/11/11 07:34:31;;;;;;;51.73;33.02;;;;;;;8.18;83.78;101378.11;1686686;82;21045;-73
2022/11/11 07:37:17;;;;;;;43.45;30.40;;;;;;;8.22;83.78;101385.40;1702710;82;21013;-75
2022/11/11 07:40:04;;;;;;;51.88;30.95;;;;;;;8.24;83.75;101382.22;1697221;82;22260;-71
2022/11/11 07:42:49;;;;;;;46.45;31.45;;;;;;;8.28;83.81;101382.42;1709918;82;21032;-71
2022/11/11 07:45:35;;;;;;;61.50;41.90;;;;;;;8.31;83.81;101382.27;1712367;82;21039;-71
2022/11/11 07:48:21;;;;;;;61.83;40.65;;;;;;;8.33;83.89;101377.30;1714797;82;21052;-71
2022/11/11 07:51:07;;;;;;;43.42;29.45;;;;;;;8.39;83.95;101381.40;1704317;82;21061;-71
2022/11/11 07:53:52;;;;;;;36.30;25.27;;;;;;;8.45;84.05;101378.45;1719123;81;22501;-74
2022/11/11 07:56:37;;;;;;;34.40;25.35;;;;;;;8.51;84.14;101385.17;1696667;82;21026;-73
2022/11/11 07:59:22;;;;;;;36.60;25.20;;;;;;;8.54;84.19;101383.68;1723611;82;21456;-75
2022/11/11 08:02:13;;;;;;;33.63;23.00;;;;;;;8.59;84.28;101385.14;1681988;82;21168;-72
2022/11/11 08:04:58;;;;;;;32.73;22.65;;;;;;;8.65;84.33;101389.20;1696397;82;20865;-71
2022/11/11 08:07:43;;;;;;;30.40;21.48;;;;;;;8.71;84.40;101391.98;1700049;82;21938;-72
2022/11/11 08:10:29;;;;;;;28.38;21.52;;;;;;;8.76;84.47;101385.50;1697929;82;21045;-72
2022/11/11 08:16:18;;;;;;;28.87;21.05;;;;;;;8.91;84.60;101396.13;1711508;82;21188;-71
2022/11/11 08:19:03;;;;;;;31.02;21.62;;;;;;;8.97;84.64;101397.94;1682935;84;21043;-76
2022/11/11 08:21:48;;;;;;;27.55;20.77;;;;;;;9.03;84.62;101404.19;1693673;82;21803;-75
2022/11/11 08:24:34;;;;;;;27.50;20.77;;;;;;;9.10;84.58;101407.33;1712066;82;21119;-76
2022/11/11 08:27:19;;;;;;;28.67;21.07;;;;;;;9.12;84.54;101412.05;1706536;82;21487;-77
2022/11/11 08:30:07;;;;;;;28.23;21.55;;;;;;;9.16;84.57;101408.28;1706072;82;20966;-78
2022/11/11 08:33:02;;;;;;;28.85;21.48;;;;;;;9.18;84.44;101408.60;1712424;82;21471;-76
2022/11/11 08:35:49;;;;;;;26.33;20.50;;;;;;;9.22;84.38;101416.33;1705447;82;22495;-77
2022/11/11 08:38:34;;;;;;;26.12;21.00;;;;;;;9.26;84.34;101421.32;1706342;82;21024;-76
2022/11/11 08:41:25;;;;;;;27.45;20.40;;;;;;;9.31;84.30;101416.65;1707383;82;21517;-78
2022/11/11 08:44:10;;;;;;;26.90;20.08;;;;;;;9.33;84.20;101417.88;1714410;82;21041;-76
2022/11/11 08:46:55;;;;;;;28.60;20.52;;;;;;;9.37;84.16;101419.41;1703467;82;21016;-71
2022/11/11 08:49:40;;;;;;;28.87;20.05;;;;;;;9.40;83.94;101422.71;1700231;82;21955;-71
2022/11/11 08:52:26;;;;;;;24.87;18.62;;;;;;;9.41;83.90;101409.05;1710236;82;21059;-71
2022/11/11 08:55:11;;;;;;;25.68;18.32;;;;;;;9.48;83.87;101414.83;1696576;82;21405;-71
2022/11/11 08:58:01;;;;;;;26.90;20.52;;;;;;;9.53;83.84;101412.29;1696263;82;21024;-75
2022/11/11 09:00:47;;;;;;;25.50;19.55;;;;;;;9.58;83.76;101408.92;1705071;82;21459;-75
2022/11/11 09:03:32;;;;;;;23.75;18.70;;;;;;;9.63;83.66;101402.89;1690355;82;21984;-75
2022/11/11 09:06:19;;;;;;;23.67;18.25;;;;;;;9.68;83.56;101405.28;1708390;82;21542;-74
2022/11/11 09:09:04;;;;;;;26.42;18.07;;;;;;;9.69;83.33;101401.22;1715129;82;21012;-74
2022/11/11 09:11:50;;;;;;;23.20;18.62;;;;;;;9.70;83.13;101405.55;1707577;82;21440;-78
2022/11/11 09:14:35;;;;;;;22.70;17.60;;;;;;;9.70;83.07;101405.55;1702619;82;21063;-75
2022/11/11 09:17:20;;;;;;;25.30;20.27;;;;;;;9.75;82.99;101401.34;1707745;82;22620;-74
2022/11/11 09:20:08;;;;;;;21.60;17.82;;;;;;;9.77;82.88;101399.45;1703133;82;21032;-79
2022/11/11 09:22:57;;;;;;;24.77;18.85;;;;;;;9.80;82.75;101401.05;1711258;82;21051;-78
2022/11/11 09:25:45;;;;;;;23.02;17.85;;;;;;;9.83;82.65;101395.58;1709592;82;21059;-77
2022/11/11 09:28:32;;;;;;;28.55;17.55;;;;;;;9.86;82.56;101390.98;1709764;82;21204;-78
2022/11/11 09:31:17;;;;;;;22.22;17.62;;;;;;;9.89;82.46;101386.84;1709606;82;21849;-76
2022/11/11 09:34:05;;;;;;;20.10;16.45;;;;;;;9.96;82.47;101384.69;1706622;82;21035;-77
2022/11/11 09:36:50;;;;;;;24.55;17.80;;;;;;;10.03;82.41;101388.63;1702019;82;21114;-73
2022/11/11 09:39:36;;;;;;;21.27;17.25;;;;;;;10.09;82.31;101392.70;1706607;82;21117;-73
2022/11/11 09:42:44;;;;;;;20.35;16.73;;;;;;;10.14;82.15;101388.84;1711047;82;21487;-75
2022/11/11 09:46:08;;;;;;;21.70;16.42;;;;;;;10.20;82.02;101386.28;1677264;83;22821;-75
2022/11/11 09:49:09;;;;;;;;;;;;;;;10.29;82.08;101387.06;1676810;83;21080;-76
2022/11/11 09:52:09;;;;;;;21.65;16.00;;;;;;;10.38;81.64;101390.93;1700181;82;20226;-73
2022/11/11 09:55:18;;;;;;;19.30;15.00;;;;;;;10.46;81.51;101386.02;1699820;82;21038;-81
2022/11/11 09:58:07;;;;;;;22.67;16.37;;;;;;;10.54;81.36;101383.75;1696888;82;21004;-76
2022/11/11 10:01:12;;;;;;;18.35;15.20;;;;;;;10.59;81.04;101381.17;1697284;82;22367;-75
2022/11/11 10:04:08;;;;;;;20.82;15.10;;;;;;;10.63;80.71;101387.61;1702284;82;21040;-77
2022/11/11 10:06:58;;;;;;;22.50;15.40;;;;;;;10.62;80.16;101385.91;1703038;82;21012;-74
2022/11/11 10:09:48;;;;;;;20.40;14.68;;;;;;;10.61;79.97;101386.36;1697944;82;21055;-74
2022/11/11 10:12:48;;;;;;;17.60;14.10;;;;;;;10.62;79.85;101384.12;1693516;82;21012;-75
2022/11/11 10:15:40;;;;;;;19.60;14.23;;;;;;;10.64;79.72;101388.83;1710385;82;21526;-73
2022/11/11 10:18:33;;;;;;;20.48;14.43;;;;;;;10.67;79.62;101389.95;1700065;82;21427;-73
2022/11/11 10:21:26;;;;;;;17.48;13.78;;;;;;;10.71;79.52;101376.05;1697354;82;21024;-74
2022/11/11 10:24:32;;;;;;;17.92;14.07;;;;;;;10.73;79.21;101379.00;1698145;82;21751;-75
2022/11/11 10:27:20;;;;;;;18.77;13.48;;;;;;;10.74;78.88;101377.20;1681050;82;21072;-75
2022/11/11 10:30:24;;;;;;;22.52;14.85;;;;;;;10.76;78.80;101371.34;1680631;83;21875;-75
2022/11/11 10:33:18;;;;;;;17.87;14.10;;;;;;;10.81;78.71;101372.75;1699669;82;21044;-77
2022/11/11 10:36:04;;;;;;;42.33;17.82;;;;;;;10.91;78.48;101376.13;1706130;82;21045;-76
2022/11/11 10:39:01;;;;;;;21.30;14.45;;;;;;;10.94;78.21;101374.11;1696623;82;21056;-76
2022/11/11 10:41:46;;;;;;;17.67;13.43;;;;;;;10.98;77.96;101368.14;1691824;82;21037;-75
2022/11/11 10:44:38;;;;;;;22.22;17.25;;;;;;;11.01;77.60;101367.97;1663053;84;22025;-73
2022/11/11 10:47:29;;;;;;;22.22;17.55;;;;;;;11.01;77.19;101371.93;1709633;82;21020;-74
2022/11/11 10:50:30;;;;;;;22.70;18.10;;;;;;;10.97;76.98;101366.45;1701590;82;21063;-76
2022/11/11 10:53:42;;;;;;;21.48;16.37;;;;;;;10.98;76.91;101356.25;1706774;82;21052;-75
2022/11/11 10:56:38;;;;;;;17.67;13.48;;;;;;;10.99;76.76;101361.91;1710798;82;20949;-74
2022/11/11 10:59:50;;;;;;;18.12;14.35;;;;;;;10.97;76.58;101366.45;1724138;81;22495;-74
2022/11/11 11:02:55;;;;;;;25.68;18.60;;;;;;;10.93;76.43;101366.29;1705860;81;20993;-74
2022/11/11 11:05:48;;;;;;;17.50;13.62;;;;;;;10.92;76.46;101368.09;1704737;82;21016;-74
2022/11/11 11:08:44;;;;;;;20.82;13.48;;;;;;;10.94;76.42;101374.59;1703265;82;21073;-73
2022/11/11 11:11:37;;;;;;;16.20;13.15;;;;;;;10.91;76.31;101378.29;1710407;82;21043;-75
2022/11/11 11:14:38;;;;;;;16.80;13.60;;;;;;;10.91;76.34;101374.80;1707759;83;22481;-72
2022/11/11 11:18:01;;;;;;;19.67;13.35;;;;;;;10.93;76.36;101372.42;1700791;82;21174;-73
2022/11/11 11:21:00;;;;;;;17.15;12.93;;;;;;;10.97;76.35;101377.88;1702545;82;21009;-72
2022/11/11 11:23:46;;;;;;;18.55;12.85;;;;;;;11.02;76.48;101370.98;1709131;83;20961;-73
2022/11/11 11:26:46;;;;;;;15.83;12.03;;;;;;;11.08;76.54;101374.05;1710191;82;21024;-72
2022/11/11 11:29:37;;;;;;;16.82;12.65;;;;;;;11.17;76.50;101372.59;1708858;83;21953;-72
2022/11/11 11:32:30;;;;;;;15.53;12.40;;;;;;;11.24;76.21;101382.30;1708856;82;21773;-73
2022/11/11 11:35:40;;;;;;;;;;;;;;;11.27;75.81;101376.33;1708860;82;21458;-73
2022/11/11 11:38:42;;;;;;;14.53;12.18;;;;;;;11.28;75.39;101379.82;1702969;82;20594;-73
2022/11/11 11:41:43;;;;;;;14.98;11.70;;;;;;;11.27;75.19;101375.48;1714839;82;21478;-72
2022/11/11 11:44:37;;;;;;;14.33;11.83;;;;;;;11.28;75.02;101375.38;1683806;82;21867;-74
2022/11/11 11:47:55;;;;;;;16.15;12.73;;;;;;;11.29;74.67;101386.80;1701885;82;20919;-76
2022/11/11 11:50:50;;;;;;;14.78;11.97;;;;;;;11.27;74.56;101382.94;1695862;83;21021;-75
2022/11/11 11:53:44;;;;;;;15.32;12.50;;;;;;;11.21;74.31;101387.33;1676040;83;21680;-75
2022/11/11 11:56:55;;;;;;;21.82;12.85;;;;;;;11.20;74.27;101390.08;1637272;86;21420;-79
2022/11/11 12:00:04;;;;;;;13.38;11.68;;;;;;;11.19;74.20;101397.14;1658921;84;21901;-75
2022/11/11 12:03:34;;;;;;;15.03;12.35;;;;;;;11.14;74.15;101403.22;1685729;83;21056;-76
2022/11/11 12:06:54;;;;;;;18.17;13.03;;;;;;;11.09;74.19;101397.37;1688014;83;21111;-77
2022/11/11 12:10:04;;;;;;;16.80;11.97;;;;;;;11.05;74.23;101395.88;1678831;83;21071;-76
2022/11/11 12:13:01;;;;;;;15.35;12.18;;;;;;;11.04;74.25;101395.04;1667081;84;21055;-77
2022/11/11 12:16:18;;;;;;;14.68;11.80;;;;;;;11.05;74.24;101405.14;1668789;84;21829;-77
2022/11/11 12:19:36;;;;;;;15.20;11.75;;;;;;;11.05;74.29;101405.14;1674622;83;21049;-80
2022/11/11 12:22:41;;;;;;;16.12;12.15;;;;;;;11.03;74.25;101406.56;1659667;85;21436;-78
2022/11/11 12:26:12;;;;;;;14.33;11.73;;;;;;;11.01;74.28;101411.58;1671350;84;21091;-79
2022/11/11 12:29:16;;;;;;;16.25;11.97;;;;;;;11.00;74.28;101413.83;1663198;85;20957;-79
2022/11/11 12:32:26;;;;;;;14.30;11.97;;;;;;;11.01;74.33;101416.87;1665243;84;21810;-78
2022/11/11 12:35:37;;;;;;;14.73;11.75;;;;;;;11.03;74.41;101416.30;1636992;85;21048;-78
2022/11/11 12:38:59;;;;;;;14.18;12.28;;;;;;;11.03;74.38;101425.07;1621639;86;21114;-75
2022/11/11 12:42:10;;;;;;;17.65;14.50;;;;;;;11.04;74.37;101425.91;1626721;86;21508;-77
2022/11/11 12:45:22;;;;;;;15.65;13.62;;;;;;;11.04;74.36;101429.41;1630123;86;21011;-77
2022/11/11 12:48:36;;;;;;;15.72;12.65;;;;;;;11.06;74.34;101424.02;1624272;86;21972;-75
2022/11/11 12:51:47;;;;;;;15.03;13.08;;;;;;;11.04;74.26;101424.13;1634907;85;21412;-76
2022/11/11 12:55:08;;;;;;;15.95;13.48;;;;;;;11.03;74.29;101425.55;1645202;85;20973;-76
2022/11/11 12:58:08;;;;;;;15.55;12.98;;;;;;;11.04;74.32;101429.88;1651124;86;21480;-74
2022/11/11 13:01:17;;;;;;;16.07;13.32;;;;;;;11.04;74.32;101429.88;1658572;85;21639;-75
2022/11/11 13:04:41;;;;;;;36.15;15.83;;;;;;;11.03;74.32;101433.48;1661034;84;21161;-76
2022/11/11 13:07:35;;;;;;;20.70;15.45;;;;;;;11.03;74.32;101436.12;1607188;85;20975;-76
2022/11/11 13:10:38;;;;;;;18.27;14.07;;;;;;;11.03;74.33;101441.41;1639017;85;21052;-76
2022/11/11 13:13:37;;;;;;;20.50;15.95;;;;;;;11.02;74.31;101448.97;1634940;86;21436;-76
2022/11/11 13:16:23;;;;;;;18.98;14.40;;;;;;;11.01;74.29;101449.44;1645343;85;21071;-76
2022/11/11 13:19:34;;;;;;;16.82;14.43;;;;;;;11.02;74.29;101451.61;1651753;85;22123;-77
2022/11/11 13:22:26;;;;;;;17.12;14.68;;;;;;;11.00;74.25;101449.52;1641686;85;39152;-77
2022/11/11 13:25:22;;;;;;;19.92;14.50;;;;;;;11.00;74.31;101449.52;1657602;84;21075;-78
2022/11/11 13:28:18;;;;;;;17.17;14.55;;;;;;;11.00;74.33;101445.55;1663221;84;20998;-77
2022/11/11 13:31:29;;;;;;;16.12;13.45;;;;;;;11.00;74.35;101457.45;1667562;84;21309;-78
2022/11/11 13:34:15;;;;;;;19.07;14.33;;;;;;;11.00;74.31;101451.71;1655162;84;23313;-78
2022/11/11 13:37:01;;;;;;;18.45;14.63;;;;;;;10.97;74.24;101448.40;1701133;82;21095;-78
2022/11/11 13:39:48;;;;;;;16.85;14.50;;;;;;;10.96;74.27;101451.52;1704204;82;21075;-77
2022/11/11 13:42:41;;;;;;;17.05;14.03;;;;;;;10.94;74.19;101452.56;1711761;82;21016;-75
2022/11/11 13:45:39;;;;;;;16.00;14.07;;;;;;;10.90;74.19;101445.28;1721955;82;21047;-76
2022/11/11 13:48:31;;;;;;;18.60;13.78;;;;;;;10.91;74.19;101450.13;1702778;83;22756;-77
2022/11/11 13:51:41;;;;;;;20.02;14.23;;;;;;;10.89;74.16;101448.88;1718710;82;20959;-76
2022/11/11 13:54:39;;;;;;;31.75;13.90;;;;;;;10.88;74.18;101450.67;1706903;82;21051;-78
2022/11/11 13:57:26;;;;;;;23.18;14.20;;;;;;;10.87;74.27;101454.27;1698807;83;21013;-77
2022/11/11 14:00:23;;;;;;;18.57;13.40;;;;;;;10.87;74.30;101456.91;1709919;82;20991;-76
2022/11/11 14:03:26;;;;;;;20.40;14.23;;;;;;;10.89;74.33;101458.13;1708191;82;21976;-78
2022/11/11 14:06:21;;;;;;;16.05;12.65;;;;;;;10.89;74.29;101469.55;1714860;82;20928;-76
2022/11/11 14:09:06;;;;;;;15.20;11.90;;;;;;;10.86;74.21;101472.40;1716138;82;20972;-76
2022/11/11 14:12:14;;;;;;;20.05;12.98;;;;;;;10.84;74.22;101477.41;1705139;83;21080;-75
2022/11/11 14:15:06;;;;;;;14.07;12.50;;;;;;;10.82;74.22;101483.27;1705691;82;21016;-77
2022/11/11 14:17:48;;;;;;;15.25;12.50;;;;;;;10.79;74.20;101481.65;1705360;82;21932;-74
2022/11/11 14:20:39;;;;;;;15.20;12.63;;;;;;;10.77;74.22;101485.34;1704429;83;21024;-73
2022/11/11 14:23:35;;;;;;;14.63;11.95;;;;;;;10.77;74.26;101495.44;1703216;82;21550;-74
2022/11/11 14:26:25;;;;;;;14.28;11.75;;;;;;;10.77;74.28;101498.08;1699427;82;21080;-74
2022/11/11 14:29:17;;;;;;;14.20;12.60;;;;;;;10.76;74.27;101502.98;1705926;82;21057;-74
2022/11/11 14:32:22;;;;;;;15.70;13.28;;;;;;;10.73;74.30;101499.23;1695883;83;21973;-74